Time;durP1;ratioP1;P1;durP2;ratioP2;P2;SDS_P1;SDS_P2;PMS_P1;PMS_P2;Temp;Humidity;BMP_temperature;BMP_pressure;BME280_temperature;BME280_humidity;BME280_pressure;Samples;Min_cycle;Max_cycle;Signal;HPM_P1;HPM_P2
2022/06/30 00:01:45;;;;;;;6.13;5.47;;;20.30;78.30;;;;;;4952171;28;20414;-89
2022/06/30 00:04:11;;;;;;;6.40;5.78;;;20.20;79.40;;;;;;4938168;28;20042;-88
2022/06/30 00:06:37;;;;;;;6.28;5.65;;;20.20;44.90;;;;;;4957628;28;20367;-88
2022/06/30 00:09:03;;;;;;;5.75;5.22;;;20.20;58.80;;;;;;4941114;28;20061;-89
2022/06/30 00:11:28;;;;;;;8.00;5.07;;;20.10;45.40;;;;;;4940306;28;20133;-88
2022/06/30 00:13:57;;;;;;;6.63;4.85;;;20.10;69.40;;;;;;4940212;28;20043;-88
2022/06/30 00:16:24;;;;;;;5.88;4.20;;;20.00;13.00;;;;;;4945250;28;20348;-88
2022/06/30 00:18:49;;;;;;;5.43;4.55;;;19.90;15.40;;;;;;4941412;28;20053;-88
2022/06/30 00:21:15;;;;;;;6.90;4.43;;;19.80;12.90;;;;;;4940731;28;20043;-87
2022/06/30 00:23:41;;;;;;;5.45;4.88;;;19.80;3.90;;;;;;4942089;28;20095;-88
2022/06/30 00:26:06;;;;;;;7.90;4.45;;;19.70;29.70;;;;;;4940197;28;20046;-89
2022/06/30 00:28:35;;;;;;;6.88;4.63;;;19.70;20.00;;;;;;4940818;28;20038;-88
2022/06/30 00:31:01;;;;;;;6.07;4.80;;;19.70;14.70;;;;;;4940767;28;20522;-88
2022/06/30 00:33:26;;;;;;;5.53;4.70;;;19.60;35.10;;;;;;4941517;28;20042;-88
2022/06/30 00:35:52;;;;;;;5.20;4.70;;;19.50;59.30;;;;;;4941867;28;20125;-88
2022/06/30 00:38:18;;;;;;;6.50;5.20;;;19.50;33.40;;;;;;4949061;28;20039;-88
2022/06/30 00:40:45;;;;;;;6.68;5.05;;;19.50;25.30;;;;;;4940762;28;20062;-88
2022/06/30 00:43:12;;;;;;;6.75;5.07;;;19.40;38.40;;;;;;4940896;28;20447;-88
2022/06/30 00:45:46;;;;;;;6.30;5.03;;;19.50;41.20;;;;;;4941094;28;20026;-88
2022/06/30 00:48:14;;;;;;;5.85;5.10;;;19.40;52.80;;;;;;4957393;28;20093;-88
2022/06/30 00:50:40;;;;;;;5.75;5.10;;;19.30;35.40;;;;;;4973225;28;20035;-89
2022/06/30 00:53:07;;;;;;;5.38;4.88;;;19.30;62.80;;;;;;4939705;28;20553;-89
2022/06/30 00:55:34;;;;;;;6.18;5.43;;;19.20;91.00;;;;;;4953305;28;20438;-88
2022/06/30 00:58:03;;;;;;;5.65;4.85;;;19.10;72.80;;;;;;4938933;28;20050;-88
2022/06/30 01:00:32;;;;;;;7.13;5.00;;;19.10;50.90;;;;;;4955861;28;20049;-89
2022/06/30 01:02:59;;;;;;;8.80;4.65;;;19.10;39.20;;;;;;4940298;28;20316;-89
2022/06/30 01:05:26;;;;;;;4.80;4.40;;;19.10;61.90;;;;;;4940938;28;20050;-88
2022/06/30 01:07:53;;;;;;;5.93;4.53;;;19.00;74.70;;;;;;4956910;28;20517;-89
2022/06/30 01:13:04;;;;;;;4.85;4.45;;;18.90;53.30;;;;;;4954636;28;20466;-88
2022/06/30 01:15:29;;;;;;;5.03;4.32;;;18.80;57.10;;;;;;4956874;28;20505;-89
2022/06/30 01:17:55;;;;;;;6.40;4.70;;;18.80;99.40;;;;;;4955452;28;20137;-89
2022/06/30 01:20:30;;;;;;;5.53;4.68;;;18.70;90.70;;;;;;4941176;28;20126;-89
2022/06/30 01:22:56;;;;;;;;;;;18.70;97.50;;;;;;4956860;28;20122;-89
2022/06/30 01:25:24;;;;;;;7.35;5.47;;;18.70;99.90;;;;;;4940759;28;20001;-88
2022/06/30 01:27:50;;;;;;;5.10;4.60;;;18.60;96.90;;;;;;4955457;28;20035;-88
2022/06/30 01:30:16;;;;;;;5.20;4.75;;;18.50;97.00;;;;;;4941612;28;20098;-88
2022/06/30 01:32:42;;;;;;;5.47;4.85;;;18.50;99.90;;;;;;4947830;28;20876;-88
2022/06/30 01:35:08;;;;;;;5.93;4.82;;;18.40;99.90;;;;;;4940166;28;20305;-88
2022/06/30 01:37:57;;;;;;;6.82;5.35;;;18.40;99.90;;;;;;4941012;28;20101;-88
2022/06/30 01:40:28;;;;;;;5.95;5.45;;;18.30;99.90;;;;;;4952182;28;20196;-88
2022/06/30 01:42:54;;;;;;;5.50;5.00;;;18.20;99.90;;;;;;4941933;28;20043;-88
2022/06/30 01:45:20;;;;;;;5.90;5.40;;;18.20;99.90;;;;;;4944527;28;20039;-89
2022/06/30 01:47:51;;;;;;;6.05;5.40;;;18.10;99.90;;;;;;4959486;28;20125;-88
2022/06/30 01:50:19;;;;;;;8.35;6.15;;;18.00;99.90;;;;;;4953182;28;20035;-88
2022/06/30 01:52:45;;;;;;;6.05;5.50;;;18.00;99.90;;;;;;4959494;28;20046;-88
2022/06/30 01:55:11;;;;;;;7.68;5.40;;;18.00;99.90;;;;;;4943663;28;20059;-88
2022/06/30 01:57:40;;;;;;;5.68;5.07;;;17.90;99.90;;;;;;4943038;28;20132;-88
2022/06/30 02:00:12;;;;;;;6.57;5.78;;;17.90;99.90;;;;;;4944308;28;20372;-88
2022/06/30 02:02:38;;;;;;;6.00;5.40;;;17.90;99.90;;;;;;4958808;28;20369;-88
2022/06/30 02:05:04;;;;;;;7.25;6.03;;;17.90;99.90;;;;;;4943259;28;20031;-88
2022/06/30 02:07:36;;;;;;;7.78;5.35;;;17.90;99.90;;;;;;4944310;28;20034;-88
2022/06/30 02:10:11;;;;;;;6.32;5.70;;;17.80;99.90;;;;;;4954875;28;20046;-89
2022/06/30 02:12:45;;;;;;;7.78;6.13;;;17.80;99.90;;;;;;4952977;28;20105;-88
2022/06/30 02:15:20;;;;;;;5.95;5.40;;;17.80;99.90;;;;;;4943779;28;20043;-88
2022/06/30 02:17:48;;;;;;;5.95;5.35;;;17.70;99.90;;;;;;4958933;28;20121;-88
2022/06/30 02:20:18;;;;;;;6.85;5.00;;;17.70;99.90;;;;;;4944344;28;20364;-88
2022/06/30 02:22:44;;;;;;;7.07;6.22;;;17.70;99.90;;;;;;4941497;28;20193;-88
2022/06/30 02:25:10;;;;;;;7.00;6.22;;;17.70;99.90;;;;;;4944940;28;20126;-88
2022/06/30 02:27:36;;;;;;;7.30;5.88;;;17.70;99.90;;;;;;4943614;28;20106;-87
2022/06/30 02:30:02;;;;;;;6.13;5.53;;;17.60;99.90;;;;;;4943967;28;20046;-88
2022/06/30 02:32:28;;;;;;;6.15;5.50;;;17.60;99.90;;;;;;4957941;28;20047;-88
2022/06/30 02:34:53;;;;;;;7.45;5.22;;;17.60;99.90;;;;;;4958148;28;20478;-88
2022/06/30 02:37:19;;;;;;;9.68;5.13;;;17.60;99.90;;;;;;4943287;28;20038;-87
2022/06/30 02:39:45;;;;;;;7.90;5.30;;;17.50;99.90;;;;;;4942902;28;20142;-88
2022/06/30 02:42:14;;;;;;;6.43;5.40;;;17.50;99.90;;;;;;4959019;28;20066;-88
2022/06/30 02:44:39;;;;;;;6.22;5.68;;;17.50;99.90;;;;;;4941571;28;20435;-88
2022/06/30 02:47:05;;;;;;;7.85;5.85;;;17.50;99.90;;;;;;4957853;28;20043;-88
2022/06/30 02:49:31;;;;;;;8.57;5.63;;;17.40;99.90;;;;;;4942329;28;20129;-88
2022/06/30 02:51:56;;;;;;;5.97;5.40;;;17.40;99.90;;;;;;4940985;28;20652;-88
2022/06/30 02:54:22;;;;;;;6.05;5.13;;;17.30;99.90;;;;;;4941422;28;20082;-88
2022/06/30 02:56:49;;;;;;;8.55;5.57;;;17.30;99.90;;;;;;4940466;28;20547;-88
2022/06/30 02:59:17;;;;;;;6.85;5.72;;;17.30;99.90;;;;;;4959158;28;20031;-89
2022/06/30 03:01:43;;;;;;;6.15;5.55;;;17.30;99.90;;;;;;4942790;28;20042;-88
2022/06/30 03:04:09;;;;;;;6.40;5.80;;;17.30;99.90;;;;;;4940427;28;20039;-88
2022/06/30 03:06:35;;;;;;;5.63;5.00;;;17.20;99.90;;;;;;4942139;28;20294;-88
2022/06/30 03:09:02;;;;;;;6.25;5.65;;;17.30;99.90;;;;;;4941611;28;20058;-87
2022/06/30 03:11:28;;;;;;;6.97;5.93;;;17.30;99.90;;;;;;4938870;28;20556;-88
2022/06/30 03:13:57;;;;;;;7.50;5.88;;;17.30;99.90;;;;;;4956768;28;20030;-87
2022/06/30 03:16:23;;;;;;;7.28;5.75;;;17.30;99.90;;;;;;4955264;28;20400;-88
2022/06/30 03:18:49;;;;;;;7.63;5.60;;;17.30;99.90;;;;;;4941703;28;20097;-86
2022/06/30 03:21:14;;;;;;;8.43;5.95;;;17.30;99.90;;;;;;4942665;28;20599;-87
2022/06/30 03:23:40;;;;;;;5.90;5.30;;;17.40;99.90;;;;;;4942787;28;20113;-88
2022/06/30 03:26:06;;;;;;;6.55;5.50;;;17.30;99.90;;;;;;4940373;28;20034;-88
2022/06/30 03:28:32;;;;;;;6.60;5.38;;;17.30;99.90;;;;;;4938404;28;20026;-89
2022/06/30 03:30:59;;;;;;;5.90;5.25;;;17.30;99.90;;;;;;4958624;28;20051;-87
2022/06/30 03:33:25;;;;;;;6.00;5.30;;;17.30;99.90;;;;;;4943278;28;20597;-88
2022/06/30 03:35:52;;;;;;;6.00;5.40;;;17.30;99.90;;;;;;4954004;28;20041;-88
2022/06/30 03:38:17;;;;;;;7.50;5.55;;;17.30;99.90;;;;;;4958070;28;20585;-89
2022/06/30 03:40:43;;;;;;;6.53;5.68;;;17.30;99.90;;;;;;4942324;28;20074;-88
2022/06/30 03:43:09;;;;;;;6.18;5.57;;;17.30;99.90;;;;;;4941151;28;20440;-88
2022/06/30 03:45:35;;;;;;;5.75;5.18;;;17.30;99.90;;;;;;4958085;28;20061;-88
2022/06/30 03:48:06;;;;;;;6.78;5.68;;;17.40;99.90;;;;;;4942330;28;20167;-88
2022/06/30 03:50:33;;;;;;;6.03;5.43;;;17.30;99.90;;;;;;4949109;28;20039;-88
2022/06/30 03:52:59;;;;;;;6.78;5.90;;;17.30;99.90;;;;;;4940728;28;20038;-88
2022/06/30 03:55:25;;;;;;;6.15;5.55;;;17.40;99.90;;;;;;4942705;28;20522;-88
2022/06/30 03:57:51;;;;;;;6.93;5.65;;;17.40;99.90;;;;;;4951369;28;20110;-87
2022/06/30 04:00:17;;;;;;;6.25;5.65;;;17.40;99.90;;;;;;4940220;28;20100;-88
2022/06/30 04:02:46;;;;;;;7.18;4.82;;;17.40;99.90;;;;;;4939825;28;20657;-89
2022/06/30 04:05:12;;;;;;;6.45;5.07;;;17.50;99.90;;;;;;4957606;28;20503;-88
2022/06/30 04:07:43;;;;;;;6.25;5.50;;;17.50;99.90;;;;;;4958265;28;20362;-87
2022/06/30 04:10:10;;;;;;;5.85;5.35;;;17.60;99.90;;;;;;4941807;28;20046;-89
2022/06/30 04:12:42;;;;;;;6.15;5.43;;;17.60;99.90;;;;;;4941643;28;20105;-88
2022/06/30 04:15:08;;;;;;;6.38;5.78;;;17.70;99.90;;;;;;4939612;28;20047;-88
2022/06/30 04:17:38;;;;;;;6.03;5.47;;;17.70;99.90;;;;;;4940475;28;20046;-88
2022/06/30 04:20:06;;;;;;;7.53;5.90;;;17.80;99.90;;;;;;4942264;28;20444;-88
2022/06/30 04:22:32;;;;;;;6.72;5.95;;;17.70;99.90;;;;;;4956669;28;20474;-88
2022/06/30 04:24:58;;;;;;;8.18;5.90;;;17.90;99.90;;;;;;4940809;28;20035;-87
2022/06/30 04:27:24;;;;;;;7.72;5.80;;;18.00;99.90;;;;;;4955199;28;20676;-88
2022/06/30 04:29:50;;;;;;;11.18;5.88;;;18.10;99.90;;;;;;4940916;28;20267;-88
2022/06/30 04:34:59;;;;;;;6.55;5.80;;;18.20;99.90;;;;;;4956568;28;20100;-88
2022/06/30 04:37:25;;;;;;;6.68;5.70;;;18.30;99.90;;;;;;4957251;28;20050;-88
2022/06/30 04:41:23;;;;;;;6.88;5.75;;;18.40;99.90;;;;;;4941067;28;20386;-88
2022/06/30 04:42:39;;;;;;;6.57;5.50;;;18.40;99.90;;;;;;4955792;28;20069;-87
2022/06/30 04:45:05;;;;;;;9.15;6.07;;;18.50;99.90;;;;;;4940149;28;20321;-88
2022/06/30 04:47:33;;;;;;;6.80;6.00;;;18.50;99.90;;;;;;4956778;28;20944;-87
2022/06/30 04:49:59;;;;;;;6.28;5.45;;;18.50;99.90;;;;;;4949989;28;20112;-89
2022/06/30 04:52:25;;;;;;;8.07;5.50;;;18.60;99.90;;;;;;4949056;28;20031;-88
2022/06/30 04:54:50;;;;;;;7.03;5.68;;;18.70;99.90;;;;;;4942103;28;20137;-88
2022/06/30 04:57:16;;;;;;;8.15;5.95;;;18.70;99.90;;;;;;4968724;28;20121;-88
2022/06/30 04:59:41;;;;;;;6.72;5.75;;;18.90;99.90;;;;;;4942208;28;20043;-88
2022/06/30 05:02:07;;;;;;;6.80;6.00;;;18.90;99.90;;;;;;4942534;28;20051;-89
2022/06/30 05:04:33;;;;;;;6.97;5.82;;;19.10;99.90;;;;;;4941777;28;20031;-88
2022/06/30 05:07:01;;;;;;;6.25;5.65;;;18.90;99.90;;;;;;4942893;28;20099;-89
2022/06/30 05:09:27;;;;;;;7.70;5.95;;;19.00;99.90;;;;;;4934980;28;20514;-88
2022/06/30 05:11:53;;;;;;;6.78;6.18;;;19.10;99.90;;;;;;4956426;28;20041;-88
2022/06/30 05:14:19;;;;;;;6.00;5.50;;;19.10;99.90;;;;;;4938665;28;20039;-89
2022/06/30 05:16:44;;;;;;;7.50;5.55;;;19.20;99.90;;;;;;4970703;28;20070;-89
2022/06/30 05:19:10;;;;;;;7.18;5.68;;;19.20;99.90;;;;;;4941063;28;20202;-88
2022/06/30 05:21:36;;;;;;;6.20;5.60;;;19.20;99.90;;;;;;4972902;28;20045;-88
2022/06/30 05:26:47;;;;;;;;;;;19.40;99.90;;;;;;4956391;28;20039;-87
2022/06/30 05:29:12;;;;;;;8.43;6.05;;;19.50;99.90;;;;;;4956138;28;20617;-88
2022/06/30 05:31:38;;;;;;;7.25;5.88;;;19.50;99.90;;;;;;4943057;28;20102;-88
2022/06/30 05:34:04;;;;;;;6.22;5.65;;;19.60;99.90;;;;;;4942068;28;20042;-89
2022/06/30 05:36:29;;;;;;;6.93;5.78;;;19.70;99.90;;;;;;4942859;28;20137;-89
2022/06/30 05:38:55;;;;;;;6.70;6.03;;;19.80;99.90;;;;;;4956091;28;20414;-89
2022/06/30 05:41:21;;;;;;;8.18;5.45;;;19.80;99.90;;;;;;4939769;28;20098;-89
2022/06/30 05:43:55;;;;;;;6.80;6.18;;;19.90;99.90;;;;;;4938529;28;20038;-89
2022/06/30 05:46:21;;;;;;;6.28;5.68;;;20.00;99.90;;;;;;4972158;28;20050;-88
2022/06/30 05:48:46;;;;;;;7.03;5.90;;;20.10;99.90;;;;;;4940209;28;20051;-88
2022/06/30 05:51:12;;;;;;;6.80;5.68;;;20.20;96.80;;;;;;4939881;28;20648;-88
2022/06/30 05:53:38;;;;;;;6.22;5.63;;;20.30;94.90;;;;;;4954676;28;20057;-89
2022/06/30 05:56:04;;;;;;;8.00;5.90;;;20.30;99.90;;;;;;4938885;28;20373;-88
2022/06/30 05:58:30;;;;;;;6.75;5.75;;;20.40;98.30;;;;;;4936387;28;20038;-88
2022/06/30 06:00:56;;;;;;;9.40;5.80;;;20.40;95.30;;;;;;4953996;28;20043;-88
2022/06/30 06:03:22;;;;;;;6.20;5.60;;;20.50;87.50;;;;;;4939661;28;20108;-89
2022/06/30 06:05:47;;;;;;;6.00;5.50;;;20.60;73.20;;;;;;4973873;28;20042;-89
2022/06/30 06:08:13;;;;;;;6.70;6.00;;;20.80;76.70;;;;;;4940446;28;20043;-88
2022/06/30 06:10:39;;;;;;;6.50;5.90;;;20.80;78.90;;;;;;4957299;28;20070;-89
2022/06/30 06:13:05;;;;;;;6.05;5.45;;;20.90;60.40;;;;;;4956920;28;20034;-89
2022/06/30 06:15:34;;;;;;;6.43;5.65;;;20.90;80.30;;;;;;4947219;28;20039;-88
2022/06/30 06:18:01;;;;;;;8.32;5.93;;;20.90;66.90;;;;;;4934766;28;20468;-88
2022/06/30 06:20:27;;;;;;;6.90;5.82;;;21.00;55.00;;;;;;4943306;28;20062;-89
2022/06/30 06:22:53;;;;;;;6.75;5.93;;;20.90;66.60;;;;;;4957855;28;20074;-89
2022/06/30 06:25:19;;;;;;;7.05;5.80;;;21.00;93.10;;;;;;4939224;28;20097;-88
2022/06/30 06:29:05;;;;;;;6.30;5.70;;;21.10;97.40;;;;;;4942043;28;20256;-89
2022/06/30 06:30:34;;;;;;;7.43;5.38;;;21.20;61.70;;;;;;4957579;28;20460;-88
2022/06/30 06:33:00;;;;;;;6.75;6.13;;;21.30;31.30;;;;;;4943234;28;20126;-88
2022/06/30 06:35:26;;;;;;;7.35;5.80;;;21.50;66.00;;;;;;4946954;28;20482;-89
2022/06/30 06:37:52;;;;;;;10.15;5.80;;;21.40;55.20;;;;;;4944764;28;20039;-89
2022/06/30 06:40:20;;;;;;;6.65;6.05;;;21.60;91.10;;;;;;4941984;28;20034;-89
2022/06/30 06:42:46;;;;;;;7.32;5.85;;;21.60;25.50;;;;;;4941825;28;20049;-89
2022/06/30 06:45:11;;;;;;;8.18;5.43;;;21.70;33.80;;;;;;4944942;28;20039;-90
2022/06/30 06:47:37;;;;;;;9.02;5.75;;;21.90;22.20;;;;;;4957880;28;20046;-90
2022/06/30 06:50:04;;;;;;;6.32;5.72;;;22.00;24.80;;;;;;4946119;28;20308;-89
2022/06/30 06:52:30;;;;;;;6.88;5.25;;;21.90;80.40;;;;;;4948274;28;20043;-89
2022/06/30 06:54:55;;;;;;;9.65;5.50;;;21.90;59.40;;;;;;4944902;28;20419;-88
2022/06/30 06:57:21;;;;;;;6.57;5.57;;;21.90;4.00;;;;;;4955747;28;20069;-89
2022/06/30 06:59:50;;;;;;;6.38;5.68;;;22.20;8.90;;;;;;4935018;28;20518;-89
2022/06/30 07:02:15;;;;;;;6.25;5.57;;;22.20;3.00;;;;;;4956487;28;20082;-90
2022/06/30 07:04:41;;;;;;;8.63;5.57;;;22.20;17.10;;;;;;4937822;28;20165;-88
2022/06/30 07:07:07;;;;;;;6.07;5.47;;;22.40;7.90;;;;;;4946342;28;20291;-89
2022/06/30 07:09:34;;;;;;;8.05;5.72;;;22.30;54.60;;;;;;4956650;28;20039;-90
2022/06/30 07:12:00;;;;;;;6.35;5.43;;;22.40;24.20;;;;;;4959734;28;20458;-89
2022/06/30 07:14:26;;;;;;;6.47;5.70;;;22.50;1.00;;;;;;4950440;28;20066;-88
2022/06/30 07:16:54;;;;;;;6.40;5.68;;;22.60;1.00;;;;;;4960074;28;20042;-88
2022/06/30 07:19:19;;;;;;;7.53;5.75;;;22.80;6.40;;;;;;4937291;28;20190;-89
2022/06/30 07:21:45;;;;;;;7.47;6.00;;;22.80;2.30;;;;;;4959921;28;20406;-90
2022/06/30 07:24:11;;;;;;;8.15;5.43;;;22.70;1.50;;;;;;4950541;28;20038;-88
2022/06/30 07:26:37;;;;;;;6.63;5.40;;;22.90;88.40;;;;;;4943501;28;20038;-89
2022/06/30 07:29:02;;;;;;;7.30;5.63;;;22.90;13.00;;;;;;4959111;28;20039;-88
2022/06/30 07:31:28;;;;;;;6.65;5.82;;;23.10;1.00;;;;;;4943599;28;20039;-89
2022/06/30 07:33:54;;;;;;;6.75;6.10;;;23.10;26.60;;;;;;4938350;28;20070;-89
2022/06/30 07:36:20;;;;;;;6.53;5.28;;;23.30;1.00;;;;;;4966188;28;20039;-89
2022/06/30 07:38:47;;;;;;;6.43;5.72;;;23.30;1.00;;;;;;4943424;28;20525;-88
2022/06/30 07:41:12;;;;;;;9.27;5.43;;;23.50;2.90;;;;;;4943905;28;20486;-88
2022/06/30 07:43:38;;;;;;;6.10;5.50;;;23.60;8.40;;;;;;4940135;28;20038;-90
2022/06/30 07:46:06;;;;;;;5.82;5.32;;;23.60;14.60;;;;;;4951623;28;20376;-89
2022/06/30 07:48:31;;;;;;;6.88;6.15;;;23.80;2.20;;;;;;4957537;28;20035;-88
2022/06/30 07:51:01;;;;;;;6.30;5.70;;;24.00;1.00;;;;;;4952908;28;20490;-89
2022/06/30 07:53:27;;;;;;;5.22;4.68;;;23.90;1.00;;;;;;4976129;28;20581;-90
2022/06/30 07:55:53;;;;;;;6.18;5.15;;;24.10;1.00;;;;;;4940873;28;20195;-89
2022/06/30 07:58:18;;;;;;;5.70;5.20;;;24.10;1.00;;;;;;4957649;28;20074;-89
2022/06/30 08:00:44;;;;;;;6.80;5.20;;;24.30;1.00;;;;;;4969834;28;20039;-88
2022/06/30 08:03:10;;;;;;;5.97;5.28;;;24.10;1.00;;;;;;4941245;28;20430;-89
2022/06/30 08:05:36;;;;;;;8.73;6.03;;;24.30;1.00;;;;;;4959347;28;20076;-90
2022/06/30 08:08:01;;;;;;;6.47;5.40;;;24.20;1.00;;;;;;4942162;28;20044;-89
2022/06/30 08:10:27;;;;;;;7.75;5.43;;;24.40;1.00;;;;;;4943086;28;20430;-89
2022/06/30 08:12:53;;;;;;;6.65;5.15;;;24.40;1.00;;;;;;4941291;28;20043;-89
2022/06/30 08:15:18;;;;;;;5.78;5.22;;;24.50;1.00;;;;;;4943067;28;20664;-89
2022/06/30 08:17:44;;;;;;;6.90;5.20;;;24.70;1.00;;;;;;4948387;28;20039;-89
2022/06/30 08:20:10;;;;;;;7.35;6.00;;;24.90;1.00;;;;;;4933527;28;20150;-89
2022/06/30 08:22:36;;;;;;;6.95;6.25;;;25.00;1.00;;;;;;4957896;28;20399;-89
2022/06/30 08:25:03;;;;;;;7.68;6.88;;;24.80;1.00;;;;;;4943485;28;20127;-89
2022/06/30 08:27:31;;;;;;;7.30;6.60;;;24.90;1.00;;;;;;4957154;28;20177;-89
2022/06/30 08:29:57;;;;;;;6.72;6.03;;;24.90;1.00;;;;;;4956391;28;20330;-89
2022/06/30 08:32:22;;;;;;;7.90;6.25;;;24.80;1.00;;;;;;4941676;28;20417;-89
2022/06/30 08:34:48;;;;;;;8.20;6.32;;;25.20;1.00;;;;;;4942279;28;20084;-89
2022/06/30 08:37:14;;;;;;;6.85;6.15;;;25.30;1.00;;;;;;4941656;28;20051;-89
2022/06/30 08:42:25;;;;;;;7.47;6.70;;;25.60;1.00;;;;;;4956767;28;20656;-89
2022/06/30 08:47:37;;;;;;;8.48;6.80;;;25.60;1.00;;;;;;4957293;28;20126;-90
2022/06/30 08:50:05;;;;;;;7.88;6.47;;;25.80;1.00;;;;;;4942078;28;20039;-89
2022/06/30 08:52:34;;;;;;;8.80;7.95;;;25.80;1.00;;;;;;4942404;28;20038;-89
2022/06/30 08:55:06;;;;;;;8.13;6.80;;;25.70;1.00;;;;;;4942588;28;20295;-90
2022/06/30 08:57:32;;;;;;;10.20;6.45;;;25.90;1.00;;;;;;4939519;28;20307;-89
2022/06/30 08:59:58;;;;;;;10.20;6.90;;;25.90;1.00;;;;;;4954965;28;20505;-89
2022/06/30 09:02:31;;;;;;;7.70;7.00;;;26.30;1.00;;;;;;4942280;28;20042;-88
2022/06/30 09:04:57;;;;;;;7.15;6.45;;;25.80;1.00;;;;;;4940041;28;20126;-90
2022/06/30 09:07:23;;;;;;;8.02;6.45;;;26.20;1.00;;;;;;4942189;28;20157;-90
2022/06/30 09:09:49;;;;;;;8.60;7.10;;;26.30;1.00;;;;;;4955117;28;20046;-90
2022/06/30 09:12:17;;;;;;;8.15;6.68;;;26.50;1.00;;;;;;4939997;28;20057;-89
2022/06/30 09:14:47;;;;;;;7.72;6.65;;;26.50;1.00;;;;;;4956205;28;20422;-89
2022/06/30 09:17:27;;;;;;;8.85;6.63;;;26.60;1.00;;;;;;4955328;28;20055;-90
2022/06/30 09:19:55;;;;;;;7.72;6.20;;;26.90;1.00;;;;;;4951771;28;20239;-89
2022/06/30 09:22:26;;;;;;;8.35;6.47;;;27.10;1.00;;;;;;4942188;28;20149;-89
2022/06/30 09:25:00;;;;;;;7.38;6.75;;;27.20;1.00;;;;;;4938796;29;20036;-89
2022/06/30 09:27:29;;;;;;;9.15;6.28;;;27.00;1.00;;;;;;4939815;28;20035;-89
2022/06/30 09:30:09;;;;;;;7.63;6.18;;;27.30;1.00;;;;;;4942388;28;20046;-88
2022/06/30 09:32:57;;;;;;;7.50;6.70;;;27.40;1.00;;;;;;4941444;28;20039;-90
2022/06/30 09:35:26;;;;;;;8.63;6.63;;;27.50;1.00;;;;;;4947534;28;20070;-89
2022/06/30 09:37:58;;;;;;;7.25;6.50;;;27.50;1.00;;;;;;4957809;28;20127;-90
2022/06/30 09:41:00;;;;;;;7.47;6.88;;;27.50;99.90;;;;;;4953204;28;20051;-89
2022/06/30 09:43:34;;;;;;;8.88;7.60;;;27.70;99.90;;;;;;4957174;28;20069;-89
2022/06/30 09:45:59;;;;;;;9.95;7.88;;;27.70;1.00;;;;;;4940055;28;20130;-89
2022/06/30 09:48:31;;;;;;;8.60;7.00;;;27.70;99.90;;;;;;4936910;28;20126;-89
2022/06/30 09:51:01;;;;;;;7.88;7.07;;;27.60;99.90;;;;;;4969587;28;20043;-89
2022/06/30 09:53:27;;;;;;;8.05;7.15;;;28.20;99.90;;;;;;4940088;28;20532;-89
2022/06/30 09:55:52;;;;;;;7.82;7.13;;;28.10;1.00;;;;;;4941348;28;20680;-89
2022/06/30 09:58:30;;;;;;;8.38;7.40;;;27.80;99.90;;;;;;4954400;28;20043;-89
2022/06/30 10:00:59;;;;;;;9.38;8.57;;;27.90;99.90;;;;;;4956922;28;20126;-89
2022/06/30 10:03:25;;;;;;;8.82;8.02;;;27.90;99.90;;;;;;4942735;28;20063;-89
2022/06/30 10:06:09;;;;;;;8.07;7.00;;;27.60;99.90;;;;;;4947196;28;20046;-90
2022/06/30 10:08:35;;;;;;;8.38;7.68;;;28.40;99.90;;;;;;4944245;28;20027;-89
2022/06/30 10:11:04;;;;;;;8.50;7.70;;;28.50;99.90;;;;;;4944211;28;20354;-89
2022/06/30 10:13:49;;;;;;;9.65;8.07;;;28.40;99.90;;;;;;4960537;28;20045;-89
2022/06/30 10:16:16;;;;;;;;;;;28.60;99.90;;;;;;4943475;28;20039;-89
2022/06/30 10:18:41;;;;;;;9.77;8.80;;;29.10;99.90;;;;;;4940548;28;19930;-89
2022/06/30 10:21:13;;;;;;;8.77;7.88;;;28.70;99.90;;;;;;4960895;28;20073;-90
2022/06/30 10:23:39;;;;;;;8.77;7.97;;;28.90;99.90;;;;;;4944823;28;20038;-89
2022/06/30 10:26:06;;;;;;;13.95;8.70;;;28.60;99.90;;;;;;4942926;28;20053;-90
2022/06/30 10:28:32;;;;;;;8.32;7.40;;;28.40;99.90;;;;;;4945111;28;20047;-89
2022/06/30 10:31:24;;;;;;;10.23;6.45;;;28.10;99.90;;;;;;4944864;28;20043;-89
2022/06/30 10:33:59;;;;;;;8.77;7.43;;;27.90;99.90;;;;;;4953287;28;20046;-89
2022/06/30 10:36:59;;;;;;;8.02;7.32;;;27.90;99.90;;;;;;4963822;28;20406;-89
2022/06/30 10:39:41;;;;;;;8.57;7.70;;;27.60;99.90;;;;;;4941264;28;20126;-90
2022/06/30 10:42:07;;;;;;;10.00;7.07;;;27.70;99.90;;;;;;4937320;28;20065;-89
2022/06/30 10:44:33;;;;;;;8.18;7.47;;;27.80;1.00;;;;;;4937849;28;20038;-88
2022/06/30 10:46:58;;;;;;;8.70;7.95;;;27.60;99.90;;;;;;4960575;28;20051;-89
2022/06/30 10:49:28;;;;;;;9.77;8.20;;;27.50;1.00;;;;;;4955307;28;20066;-89
2022/06/30 10:52:16;;;;;;;10.73;8.23;;;27.50;1.00;;;;;;4943445;28;20501;-90
2022/06/30 10:54:45;;;;;;;9.63;8.52;;;27.60;99.90;;;;;;4955978;28;20110;-91
2022/06/30 10:57:12;;;;;;;8.75;7.90;;;27.70;1.00;;;;;;4959549;28;20498;-90
2022/06/30 10:59:41;;;;;;;10.10;8.65;;;27.90;99.90;;;;;;4960062;28;20133;-91
2022/06/30 11:02:07;;;;;;;8.88;7.97;;;28.10;99.90;;;;;;4944347;28;20047;-90
2022/06/30 11:04:37;;;;;;;9.50;8.50;;;27.80;99.90;;;;;;4935745;28;20047;-91
2022/06/30 11:07:09;;;;;;;9.70;8.80;;;28.10;99.90;;;;;;4943183;28;20637;-90
2022/06/30 11:09:44;;;;;;;10.05;8.85;;;27.60;99.90;;;;;;4949682;28;20043;-90
2022/06/30 11:12:11;;;;;;;;;;;27.60;99.90;;;;;;4960618;28;20146;-90
2022/06/30 11:14:40;;;;;;;8.85;8.05;;;28.30;99.90;;;;;;4960932;28;19954;-91
2022/06/30 11:17:16;;;;;;;8.77;8.02;;;29.00;99.90;;;;;;4953638;28;20602;-90
2022/06/30 11:19:42;;;;;;;11.13;7.97;;;29.60;99.90;;;;;;4951500;28;20569;-91
2022/06/30 11:22:12;;;;;;;8.55;7.65;;;29.40;99.90;;;;;;4945768;28;20348;-90
2022/06/30 11:24:42;;;;;;;8.80;7.30;;;29.10;99.90;;;;;;4949843;28;20098;-90
2022/06/30 11:27:24;;;;;;;7.72;7.03;;;29.20;99.90;;;;;;4945812;28;20050;-90
2022/06/30 11:29:57;;;;;;;8.70;7.68;;;29.10;99.90;;;;;;4961808;28;20571;-90
2022/06/30 11:32:23;;;;;;;8.65;7.72;;;28.60;99.90;;;;;;4944960;28;20042;-90
2022/06/30 11:34:49;;;;;;;8.75;7.93;;;28.50;99.90;;;;;;4944983;28;20051;-90
2022/06/30 11:37:27;;;;;;;11.98;7.00;;;28.60;99.90;;;;;;4959570;28;20061;-89
2022/06/30 11:40:15;;;;;;;7.03;5.75;;;28.90;99.90;;;;;;4958708;28;20126;-90
2022/06/30 11:42:41;;;;;;;6.85;6.10;;;29.60;99.90;;;;;;4943863;28;20562;-90
2022/06/30 11:45:21;;;;;;;5.78;5.18;;;29.30;99.90;;;;;;4939143;28;20039;-92
2022/06/30 11:48:03;;;;;;;7.22;5.20;;;30.20;99.90;;;;;;4944716;28;20214;-90
2022/06/30 11:50:29;;;;;;;7.35;5.60;;;29.90;99.90;;;;;;4939169;28;20523;-90
2022/06/30 11:52:57;;;;;;;6.70;6.10;;;29.10;99.90;;;;;;4975588;28;20066;-90
2022/06/30 11:55:27;;;;;;;8.68;6.05;;;29.50;99.90;;;;;;4941750;28;20421;-90
2022/06/30 11:57:54;;;;;;;6.40;5.75;;;29.90;99.90;;;;;;4958293;28;20129;-90
2022/06/30 12:00:25;;;;;;;7.07;6.38;;;29.90;99.90;;;;;;4945785;28;20061;-90
2022/06/30 12:02:57;;;;;;;7.20;6.50;;;29.60;99.90;;;;;;4956772;28;20379;-90
2022/06/30 12:05:27;;;;;;;7.20;5.90;;;29.90;99.90;;;;;;4946944;28;20667;-92
2022/06/30 12:07:53;;;;;;;6.90;5.75;;;29.40;99.90;;;;;;4943901;28;20038;-92
2022/06/30 12:10:24;;;;;;;6.63;5.95;;;29.20;99.90;;;;;;4942232;28;20034;-91
2022/06/30 12:12:50;;;;;;;6.45;5.72;;;29.40;99.90;;;;;;4942589;28;20143;-91
2022/06/30 12:15:18;;;;;;;7.78;6.18;;;29.90;99.90;;;;;;4943605;28;20031;-91
2022/06/30 12:17:58;;;;;;;7.15;6.35;;;29.60;99.90;;;;;;4958083;28;20466;-90
2022/06/30 12:20:27;;;;;;;6.60;6.00;;;29.20;99.90;;;;;;4944117;28;20047;-91
2022/06/30 12:22:53;;;;;;;8.18;6.43;;;28.60;99.90;;;;;;4942493;28;20675;-90
2022/06/30 12:25:20;;;;;;;7.68;5.45;;;28.50;99.90;;;;;;4944689;28;20043;-91
2022/06/30 12:27:51;;;;;;;6.45;4.85;;;28.80;99.90;;;;;;4939420;28;20502;-90
2022/06/30 12:30:23;;;;;;;6.15;4.70;;;29.30;99.90;;;;;;4944172;28;20119;-90
2022/06/30 12:33:00;;;;;;;9.60;6.28;;;29.40;99.90;;;;;;4942508;28;20034;-91
2022/06/30 12:35:30;;;;;;;8.63;6.18;;;29.00;99.90;;;;;;4952165;28;20074;-90
2022/06/30 12:37:56;;;;;;;6.55;5.95;;;29.50;99.90;;;;;;4956263;28;20525;-91
2022/06/30 12:40:23;;;;;;;9.30;5.75;;;29.50;99.90;;;;;;4944099;28;20158;-91
2022/06/30 12:42:52;;;;;;;9.48;5.68;;;29.70;99.90;;;;;;4943061;28;20031;-90
2022/06/30 12:45:33;;;;;;;8.30;5.40;;;30.20;99.90;;;;;;4940024;28;20086;-91
2022/06/30 12:47:58;;;;;;;7.32;5.18;;;29.50;99.90;;;;;;4951586;28;20045;-91
2022/06/30 12:50:24;;;;;;;11.40;5.50;;;29.70;99.90;;;;;;4943605;28;20528;-91
2022/06/30 12:52:53;;;;;;;8.75;5.50;;;28.60;99.90;;;;;;4958498;28;20042;-90
2022/06/30 12:55:18;;;;;;;6.20;4.90;;;28.70;99.90;;;;;;4957827;28;20452;-91
2022/06/30 12:57:48;;;;;;;9.40;4.85;;;29.00;99.90;;;;;;4943369;28;20070;-91
2022/06/30 13:00:14;;;;;;;5.38;4.60;;;28.90;99.90;;;;;;4944298;28;20529;-91
2022/06/30 13:02:40;;;;;;;6.57;4.10;;;28.70;99.90;;;;;;4943033;28;20058;-90
2022/06/30 13:05:13;;;;;;;7.20;4.15;;;29.10;99.90;;;;;;4937095;28;20050;-90
2022/06/30 13:07:40;;;;;;;5.07;4.22;;;29.40;99.90;;;;;;4945917;28;20053;-91
2022/06/30 13:10:07;;;;;;;4.28;3.33;;;29.80;99.90;;;;;;4959949;28;20046;-89